SYDO2: Otter Creek

Data processed at Wed May 22 2019 23:50


All information presented herein is the property of the government of the United States of America and may be revised or deleted at any time without prior notice.
Dissemination of this information without the expressed written consent of the Public Affairs Office, Tulsa District U.S. Army Corps of Engineers is strictly prohibited.
These data are gathered electronically and, as presented, have not undergone any form of quality control. These data are not guaranteed to be valid or correct.
Go to home page.
Go to station list.
Go to home page.

Upstream stations:

Downstream station:
Previous Day
Next Day
Current Day
    
SHEF ID:       SYDO2     Otter Creek near Snyder, OK
STATION TYPE:  
Regulating: Stage =    11.00, Flow =      362

               PRECIP PRECIP(A)     STAGE  RIV-FLOW   VOLTAGE
                   in        in        ft       cfs      volt
              Ccp-Rev   Ccp-Rev   Ccp-Rev   Ccp-Rev   Ccp-Rev
(US/Central)
05/22 00:00      0.00      0.00     11.40       447     13.01
05/22 01:00      0.00      0.00     11.35       433     13.01
05/22 02:00      0.00      0.00     11.30       420     12.99
05/22 03:00      0.00      0.00     11.22       404     12.96
05/22 04:00      0.00      0.00     11.16       393     12.95
05/22 05:00      0.00      0.00     11.07       375     12.93
05/22 06:00      0.00      0.00     11.00       362     12.90
05/22 07:00      0.00      0.00     10.91       346     12.90
05/22 08:00      0.00      0.00     10.84       333     13.38
05/22 09:00      0.00      0.00     10.76       320     13.68
05/22 10:00      0.00      0.00     10.69       308     13.79
05/22 11:00      0.00      0.00     10.56       287     13.85
05/22 12:00      0.00      0.00     10.40       262     14.19
05/22 13:00      0.00      0.00     10.25       242     13.94
05/22 14:00      0.00      0.00     10.09       221     13.95
05/22 15:00      0.00      0.00      9.96       207     14.31
05/22 16:00      0.00      0.00      9.84       195     13.98
05/22 17:00      0.00      0.00      9.71       183     13.86
05/22 18:00      0.00      0.00      9.67       179     14.09
05/22 19:00      0.00      0.00      9.68       180     14.54
05/22 20:00      0.00      0.00      9.77       189     13.18
05/22 21:00      0.00      0.00      9.88       199     13.11
05/22 22:00      0.00      0.00     10.00       211     13.08
05/22 23:00      0.00      0.00     10.10       223     13.05